Time;durP1;ratioP1;P1;durP2;ratioP2;P2;SDS_P1;SDS_P2;PMS_P1;PMS_P2;Temp;Humidity;BMP_temperature;BMP_pressure;BME280_temperature;BME280_humidity;BME280_pressure;Samples;Min_cycle;Max_cycle;Signal;HPM_P1;HPM_P2
2021/12/14 00:00:43;;;;;;;;;53.00;42.50;;;;;12.34;46.64;99458.03;4835367;28;105145;-59
2021/12/14 00:03:10;;;;;;;;;55.75;44.50;;;;;12.32;46.96;99460.94;4828411;28;103879;-59
2021/12/14 00:05:38;;;;;;;;;56.25;41.75;;;;;12.32;46.22;99471.78;4840557;28;103897;-59
2021/12/14 00:08:05;;;;;;;;;52.25;41.50;;;;;12.31;47.05;99464.69;4833002;28;102714;-58
2021/12/14 00:13:13;;;;;;;;;57.50;45.50;;;;;12.30;47.01;99465.72;4826989;28;103380;-59
2021/12/14 00:15:41;;;;;;;;;62.25;45.25;;;;;12.29;46.49;99455.88;4811292;28;102545;-59
2021/12/14 00:18:10;;;;;;;;;56.25;44.00;;;;;12.29;46.70;99461.31;4821151;28;104399;-59
2021/12/14 00:20:44;;;;;;;;;47.75;38.00;;;;;12.27;47.19;99457.97;4813787;28;104358;-59
2021/12/14 00:25:43;;;;;;;;;52.50;42.25;;;;;12.24;46.50;99469.19;4834228;28;103953;-59
2021/12/14 00:28:40;;;;;;;;;50.25;40.25;;;;;12.24;46.83;99473.78;4831396;28;102902;-59
2021/12/14 00:31:10;;;;;;;;;55.00;43.00;;;;;12.23;47.22;99472.09;4795616;28;109207;-59
2021/12/14 00:33:37;;;;;;;;;51.25;40.50;;;;;12.22;47.13;99470.41;4829088;28;102662;-59
2021/12/14 00:36:06;;;;;;;;;51.75;38.00;;;;;12.22;47.22;99478.53;4813768;28;105395;-59
2021/12/14 00:38:34;;;;;;;;;59.50;41.75;;;;;12.20;47.06;99473.34;4829705;28;102777;-59
2021/12/14 00:41:10;;;;;;;;;53.25;41.25;;;;;12.21;46.45;99474.16;4829099;28;104286;-59
2021/12/14 00:43:37;;;;;;;;;46.25;38.25;;;;;12.20;47.23;99478.75;4828238;28;104569;-59
2021/12/14 00:46:04;;;;;;;;;51.75;38.75;;;;;12.21;46.83;99474.97;4833982;28;103131;-59
2021/12/14 00:48:31;;;;;;;;;47.00;39.00;;;;;12.21;47.03;99474.97;4823387;28;102736;-59
2021/12/14 00:50:59;;;;;;;;;58.00;46.00;;;;;12.22;46.72;99482.09;4812203;28;104051;-59
2021/12/14 00:53:27;;;;;;;;;54.75;41.25;;;;;12.23;46.48;99472.09;4846879;28;103643;-59
2021/12/14 00:55:56;;;;;;;;;58.75;44.00;;;;;12.24;47.04;99473.78;4825050;28;103618;-60
2021/12/14 00:58:23;;;;;;;;;61.75;44.75;;;;;12.22;46.73;99468.53;4835518;28;102827;-59
2021/12/14 01:00:59;;;;;;;;;54.00;43.75;;;;;12.22;46.63;99471.25;4833691;28;104059;-59
2021/12/14 01:03:28;;;;;;;;;55.00;44.00;;;;;12.22;46.42;99473.97;4803849;28;104405;-58
2021/12/14 01:05:56;;;;;;;;;52.75;42.00;;;;;12.20;46.68;99473.34;4805894;28;104572;-59
2021/12/14 01:08:24;;;;;;;;;51.25;41.25;;;;;12.21;46.70;99476.84;4839215;28;102982;-59
2021/12/14 01:11:01;;;;;;;;;48.50;40.50;;;;;12.20;46.66;99478.75;4823621;28;104122;-59
2021/12/14 01:13:30;;;;;;;;;54.25;40.50;;;;;12.19;46.82;99468.94;4823845;28;102668;-59
2021/12/14 01:16:13;;;;;;;;;53.50;42.00;;;;;12.19;46.15;99466.22;4821015;28;103071;-59
2021/12/14 01:21:39;;;;;;;;;55.75;44.50;;;;;12.18;46.03;99458.25;4822013;28;104218;-59
2021/12/14 01:24:09;;;;;;;;;54.50;41.25;;;;;12.17;46.93;99462.00;4822842;28;105233;-59
2021/12/14 01:26:38;;;;;;;;;53.00;43.50;;;;;12.14;47.05;99462.38;4824567;28;104074;-59
2021/12/14 01:29:07;;;;;;;;;53.50;41.75;;;;;12.13;46.36;99458.00;4827733;28;102568;-59
2021/12/14 01:31:38;;;;;;;;;51.50;39.00;;;;;12.11;46.87;99457.34;4800701;28;104037;-59
2021/12/14 01:34:11;;;;;;;;;53.25;39.25;;;;;12.10;46.38;99461.09;4815557;28;102804;-58
2021/12/14 01:36:43;;;;;;;;;51.50;42.50;;;;;12.08;46.49;99459.41;4795842;28;102902;-59
2021/12/14 01:39:47;;;;;;;;;51.50;39.50;;;;;12.11;47.27;99465.50;4809661;28;102386;-59
2021/12/14 01:42:31;;;;;;;;;55.00;40.00;;;;;12.10;46.64;99458.38;4821555;28;108882;-59
2021/12/14 01:45:07;;;;;;;;;52.25;39.25;;;;;12.10;47.04;99458.38;4820052;28;102353;-59
2021/12/14 01:47:37;;;;;;;;;53.00;39.75;;;;;12.08;47.06;99458.56;4815985;28;102492;-59
2021/12/14 01:50:07;;;;;;;;;51.25;38.00;;;;;12.08;46.37;99461.28;4827257;28;104267;-59
2021/12/14 01:52:34;;;;;;;;;47.00;38.25;;;;;12.07;46.24;99452.28;4814839;28;104084;-59
2021/12/14 01:55:15;;;;;;;;;52.25;41.50;;;;;12.07;46.98;99465.00;4825596;28;102483;-59
2021/12/14 01:57:42;;;;;;;;;55.25;41.00;;;;;12.06;46.55;99456.06;4830847;28;102649;-59
2021/12/14 02:00:12;;;;;;;;;50.25;39.00;;;;;12.08;47.24;99458.56;4830473;28;103573;-59
2021/12/14 02:02:42;;;;;;;;;54.00;39.00;;;;;12.06;46.50;99463.34;4792325;28;104528;-59
2021/12/14 02:05:33;;;;;;;;;51.25;40.00;;;;;12.05;46.58;99448.09;4804502;28;102303;-59
2021/12/14 02:08:02;;;;;;;;;54.25;42.50;;;;;12.05;46.68;99448.09;4785672;28;103304;-58
2021/12/14 02:10:36;;;;;;;;;53.00;39.25;;;;;12.04;46.49;99452.69;4828073;28;102820;-60
2021/12/14 02:13:04;;;;;;;;;48.00;37.00;;;;;12.04;46.82;99454.56;4836864;28;104059;-59
2021/12/14 02:15:42;;;;;;;;;44.50;38.75;;;;;12.03;46.13;99455.56;4829019;28;102653;-59
2021/12/14 02:18:14;;;;;;;;;49.50;40.50;;;;;12.02;46.89;99449.31;4809619;28;104435;-59
2021/12/14 02:20:57;;;;;;;;;52.00;40.50;;;;;12.02;46.89;99468.28;4829789;28;104110;-59
2021/12/14 02:23:24;;;;;;;;;51.00;38.25;;;;;12.02;46.58;99465.56;4810383;28;108897;-59
2021/12/14 02:25:52;;;;;;;;;43.50;37.25;;;;;12.01;46.51;99466.63;4820195;28;104543;-59
2021/12/14 02:28:21;;;;;;;;;50.00;39.50;;;;;11.99;46.95;99474.09;4802736;28;106006;-59
2021/12/14 02:30:51;;;;;;;;;51.50;37.00;;;;;11.97;47.09;99472.63;4828612;28;103348;-59
2021/12/14 02:33:31;;;;;;;;;53.75;41.00;;;;;11.97;46.75;99459.06;4814903;28;104434;-59
2021/12/14 02:36:00;;;;;;;;;50.50;36.75;;;;;11.97;45.96;99456.34;4820860;28;102716;-59
2021/12/14 02:38:27;;;;;;;;;44.00;36.25;;;;;11.96;46.98;99457.38;4801395;28;102655;-59
2021/12/14 02:41:01;;;;;;;;;49.50;36.50;;;;;11.96;46.55;99465.50;4819523;28;102454;-59
2021/12/14 02:43:36;;;;;;;;;51.50;39.50;;;;;11.95;46.91;99461.09;4813784;28;108932;-59
2021/12/14 02:46:09;;;;;;;;;51.75;38.25;;;;;11.94;47.23;99454.84;4830420;28;102532;-59
2021/12/14 02:48:38;;;;;;;;;46.50;37.75;;;;;11.94;47.37;99462.13;4842270;28;102518;-59
2021/12/14 02:51:29;;;;;;;;;50.75;38.25;;;;;11.95;46.48;99470.09;4823680;28;102864;-59
2021/12/14 02:54:00;;;;;;;;;51.25;38.25;;;;;11.94;47.00;99472.97;4830922;28;108782;-59
2021/12/14 02:56:28;;;;;;;;;49.00;38.00;;;;;11.94;46.70;99464.84;4825932;28;103861;-59
2021/12/14 02:59:02;;;;;;;;;45.25;37.25;;;;;11.95;46.41;99470.09;4831759;28;103759;-59
2021/12/14 03:01:29;;;;;;;;;44.50;37.00;;;;;11.92;46.51;99472.34;4828128;28;102686;-59
2021/12/14 03:04:01;;;;;;;;;57.50;39.25;;;;;11.91;46.58;99457.09;4826387;28;103806;-59
2021/12/14 03:06:30;;;;;;;;;47.00;37.00;;;;;11.92;46.70;99472.34;4828738;28;102885;-59
2021/12/14 03:09:08;;;;;;;;;44.25;37.25;;;;;11.96;46.15;99465.50;4839423;28;102866;-59
2021/12/14 03:11:36;;;;;;;;;46.75;37.75;;;;;11.98;46.77;99471.56;4833655;28;102842;-59
2021/12/14 03:14:04;;;;;;;;;36.25;33.50;;;;;12.00;46.67;99478.50;4828228;28;104097;-59
2021/12/14 03:16:32;;;;;;;;;39.25;34.50;;;;;12.03;46.09;99471.84;4827166;28;102672;-59
2021/12/14 03:19:00;;;;;;;;;48.00;37.00;;;;;12.06;46.46;99469.63;4826821;28;102489;-59
2021/12/14 03:21:32;;;;;;;;;48.50;38.75;;;;;12.10;46.40;99459.22;4834858;28;104111;-59
2021/12/14 03:24:07;;;;;;;;;48.25;38.50;;;;;12.13;46.02;99468.84;4826437;28;104196;-59
2021/12/14 03:26:39;;;;;;;;;46.25;37.00;;;;;12.17;46.90;99473.69;4830948;28;102366;-59
2021/12/14 03:29:17;;;;;;;;;44.75;37.00;;;;;12.20;46.79;99462.50;4819242;28;102414;-59
2021/12/14 03:31:46;;;;;;;;;42.25;36.00;;;;;12.24;46.75;99466.50;4835527;28;103544;-59
2021/12/14 03:34:21;;;;;;;;;39.50;35.00;;;;;12.27;46.26;99468.81;4843569;28;104321;-59
2021/12/14 03:36:51;;;;;;;;;39.75;31.50;;;;;12.31;46.77;99463.84;4836876;28;103980;-59
2021/12/14 03:39:25;;;;;;;;;39.75;34.50;;;;;12.36;46.44;99466.81;4825060;28;102640;-59
2021/12/14 03:41:57;;;;;;;;;50.50;35.75;;;;;12.37;46.24;99468.50;4839120;28;102695;-59
2021/12/14 03:44:29;;;;;;;;;43.00;34.25;;;;;12.40;46.43;99462.69;4839569;28;108865;-59
2021/12/14 03:47:02;;;;;;;;;36.50;34.00;;;;;12.41;46.30;99470.66;4848880;28;102581;-59
2021/12/14 03:49:32;;;;;;;;;43.50;38.00;;;;;12.43;46.68;99457.72;4821565;28;102521;-59
2021/12/14 03:51:59;;;;;;;;;50.50;37.75;;;;;12.41;46.63;99462.50;4826857;28;102612;-58
2021/12/14 03:54:26;;;;;;;;;40.00;33.25;;;;;12.41;46.42;99467.94;4831740;28;104097;-59
2021/12/14 03:56:53;;;;;;;;;46.25;35.75;;;;;12.42;46.54;99471.50;4826717;28;102594;-59
2021/12/14 03:59:21;;;;;;;;;44.25;32.00;;;;;12.44;45.72;99474.84;4822072;28;102611;-59
2021/12/14 04:01:49;;;;;;;;;34.25;31.75;;;;;12.44;45.95;99464.84;4827294;28;106381;-59
2021/12/14 04:04:19;;;;;;;;;36.75;30.00;;;;;12.48;46.04;99473.41;4826320;28;106588;-59
2021/12/14 04:06:48;;;;;;;;;37.75;31.00;;;;;12.47;46.58;99469.88;4834879;28;102494;-60
2021/12/14 04:09:16;;;;;;;;;38.25;33.50;;;;;12.49;46.42;99466.97;4828357;28;103590;-59
2021/12/14 04:11:44;;;;;;;;;42.50;34.25;;;;;12.48;47.33;99462.56;4825277;28;102721;-59
2021/12/14 04:14:11;;;;;;;;;38.50;34.50;;;;;12.51;46.04;99460.34;4830040;28;104092;-59
2021/12/14 04:16:40;;;;;;;;;43.50;36.50;;;;;12.51;47.20;99449.47;4821804;28;104492;-59
2021/12/14 04:19:10;;;;;;;;;37.75;34.25;;;;;12.52;46.68;99461.16;4829254;28;104307;-59
2021/12/14 04:21:39;;;;;;;;;48.00;37.25;;;;;12.52;46.18;99462.00;4837588;28;102891;-59
2021/12/14 04:24:08;;;;;;;;;41.00;36.25;;;;;12.52;46.92;99472.00;4822469;28;103853;-59
2021/12/14 04:26:35;;;;;;;;;45.75;38.25;;;;;12.52;46.32;99466.56;4835300;28;102455;-59
2021/12/14 04:29:03;;;;;;;;;44.50;34.75;;;;;12.52;46.48;99467.41;4829544;28;102576;-59
2021/12/14 04:31:36;;;;;;;;;38.50;33.50;;;;;12.53;46.27;99465.56;4828453;28;102536;-59
2021/12/14 04:34:03;;;;;;;;;45.75;37.00;;;;;12.52;45.57;99470.13;4814326;28;104374;-59
2021/12/14 04:36:31;;;;;;;;;44.75;33.75;;;;;12.51;46.27;99463.06;4836371;28;103137;-59
2021/12/14 04:39:16;;;;;;;;;38.50;34.25;;;;;12.52;46.18;99462.00;4848118;28;102656;-59
2021/12/14 04:53:25;;;;;;;;;50.25;36.00;;;;;12.49;46.45;99462.38;4829691;28;102970;-59
2021/12/14 04:55:54;;;;;;;;;42.50;35.25;;;;;12.47;45.62;99464.44;4831836;28;108814;-59
2021/12/14 04:58:32;;;;;;;;;43.50;36.25;;;;;12.46;45.79;99451.09;4844692;28;102193;-59
2021/12/14 05:01:00;;;;;;;;;40.25;34.50;;;;;12.44;46.49;99462.13;4835021;28;102664;-60
2021/12/14 05:03:31;;;;;;;;;43.00;34.00;;;;;12.43;45.56;99465.84;4835444;28;103636;-59
2021/12/14 05:06:10;;;;;;;;;49.75;37.50;;;;;12.43;46.11;99463.16;4835768;28;109029;-59
2021/12/14 05:11:10;;;;;;;;;47.00;35.75;;;;;12.43;46.50;99473.16;4824047;28;102460;-59
2021/12/14 05:13:38;;;;;;;;;35.00;30.50;;;;;12.39;46.52;99470.00;4837640;28;102279;-59
2021/12/14 05:16:06;;;;;;;;;37.25;33.00;;;;;12.39;46.75;99472.69;4831721;28;104080;-59
2021/12/14 05:18:33;;;;;;;;;42.75;34.75;;;;;12.38;46.33;99471.00;4826838;28;102603;-59
2021/12/14 05:21:00;;;;;;;;;40.75;34.25;;;;;12.39;45.49;99477.28;4813727;28;104375;-59
2021/12/14 05:23:32;;;;;;;;;45.50;36.25;;;;;12.38;45.59;99464.78;4833417;28;103187;-59
2021/12/14 05:26:01;;;;;;;;;37.75;31.25;;;;;12.36;46.13;99462.25;4827505;28;108952;-59
2021/12/14 05:28:28;;;;;;;;;38.75;34.00;;;;;12.36;46.03;99464.13;4836493;28;102458;-59
2021/12/14 05:30:57;;;;;;;;;39.00;34.25;;;;;12.34;45.94;99448.03;4835077;28;102526;-59
2021/12/14 05:33:28;;;;;;;;;41.00;34.25;;;;;12.35;46.26;99446.16;4840674;28;102648;-59
2021/12/14 05:35:59;;;;;;;;;46.25;37.75;;;;;12.33;45.71;99448.22;4824172;28;104078;-59
2021/12/14 05:38:41;;;;;;;;;43.25;36.00;;;;;12.33;46.67;99442.81;4834496;28;102962;-59
2021/12/14 05:43:05;;;;;;;;;42.00;35.50;;;;;12.32;45.82;99439.25;4830514;28;102776;-59
2021/12/14 05:43:59;;;;;;;;;40.00;33.75;;;;;12.30;46.00;99441.31;4832558;28;102314;-59
2021/12/14 05:46:26;;;;;;;;;46.25;34.25;;;;;12.29;46.03;99455.88;4810227;28;110686;-59
2021/12/14 05:48:58;;;;;;;;;42.75;35.25;;;;;12.29;46.43;99458.59;4840692;28;102718;-59
2021/12/14 05:51:26;;;;;;;;;37.50;35.00;;;;;12.28;46.09;99461.53;4833872;28;102591;-59
2021/12/14 05:53:53;;;;;;;;;36.00;28.75;;;;;12.27;46.76;99460.69;4828919;28;103051;-59
2021/12/14 05:56:21;;;;;;;;;34.50;31.75;;;;;12.27;46.58;99463.38;4843759;28;104057;-59
2021/12/14 05:58:49;;;;;;;;;38.50;34.50;;;;;12.25;46.59;99457.31;4828314;28;102478;-59
2021/12/14 06:01:22;;;;;;;;;41.75;33.00;;;;;12.25;46.20;99451.88;4824106;28;110658;-59
2021/12/14 06:03:55;;;;;;;;;40.75;34.25;;;;;12.25;46.08;99446.47;4832011;28;102333;-59
2021/12/14 06:06:27;;;;;;;;;36.00;32.25;;;;;12.24;46.02;99436.66;4828478;28;104212;-59
2021/12/14 06:09:07;;;;;;;;;37.25;33.25;;;;;12.23;46.00;99437.69;4830552;28;102536;-59
2021/12/14 06:11:34;;;;;;;;;40.25;33.50;;;;;12.21;45.94;99441.59;4827161;28;103113;-59
2021/12/14 06:14:01;;;;;;;;;39.75;34.00;;;;;12.14;46.42;99419.84;4833630;28;102688;-58
2021/12/14 06:16:35;;;;;;;;;37.50;34.00;;;;;12.16;45.91;99427.81;4808168;28;109662;-59
2021/12/14 06:19:33;;;;;;;;;35.00;31.75;;;;;12.15;45.77;99431.53;4834791;28;111637;-60
2021/12/14 06:22:19;;;;;;;;;38.50;35.50;;;;;12.15;46.52;99440.53;4830649;28;102333;-60
2021/12/14 06:24:49;;;;;;;;;36.75;30.00;;;;;12.14;46.46;99430.69;4846308;28;103878;-59
2021/12/14 06:27:17;;;;;;;;;38.75;34.25;;;;;12.13;46.82;99428.16;4842228;28;104212;-59
2021/12/14 06:29:46;;;;;;;;;32.25;26.75;;;;;12.13;46.73;99442.56;4845637;28;103589;-59
2021/12/14 06:32:15;;;;;;;;;36.75;31.50;;;;;12.12;46.72;99445.47;4833006;28;102573;-59
2021/12/14 06:34:51;;;;;;;;;14.75;10.50;;;;;12.09;46.52;99446.69;4832691;28;102506;-59
2021/12/14 06:39:59;;;;;;;;;45.75;32.75;;;;;12.09;45.81;99441.28;4833900;28;102510;-59
2021/12/14 06:42:26;;;;;;;;;36.00;32.00;;;;;12.07;46.64;99441.44;4828089;28;102380;-59
2021/12/14 06:45:15;;;;;;;;;37.50;32.00;;;;;12.07;45.73;99443.31;4826774;28;102526;-59
2021/12/14 06:47:43;;;;;;;;;45.25;37.00;;;;;12.07;46.14;99446.88;4817397;28;108836;-59
2021/12/14 06:50:13;;;;;;;;;46.50;33.75;;;;;12.07;46.66;99448.75;4821007;28;102562;-59
2021/12/14 06:52:40;;;;;;;;;50.00;35.75;;;;;12.06;46.88;99449.78;4829503;28;102423;-59
2021/12/14 06:55:07;;;;;;;;;40.75;33.00;;;;;12.06;45.76;99434.38;4843680;28;103532;-59
2021/12/14 06:57:34;;;;;;;;;46.25;37.25;;;;;12.05;46.86;99426.41;4839824;28;104013;-59
2021/12/14 07:00:02;;;;;;;;;44.25;34.25;;;;;12.06;45.91;99428.09;4812767;28;102549;-59
2021/12/14 07:02:29;;;;;;;;;36.25;29.75;;;;;12.06;46.57;99428.09;4837440;28;102472;-59
2021/12/14 07:04:56;;;;;;;;;35.50;33.75;;;;;12.05;46.09;99438.09;4841457;28;102699;-59
2021/12/14 07:07:25;;;;;;;;;38.75;30.75;;;;;12.06;46.61;99430.81;4825470;28;103679;-59
2021/12/14 07:09:57;;;;;;;;;36.75;30.00;;;;;12.03;46.27;99423.88;4841463;28;102396;-59
2021/12/14 07:12:35;;;;;;;;;42.00;35.25;;;;;12.02;46.65;99422.19;4839347;28;102552;-59
2021/12/14 07:15:22;;;;;;;;;34.75;31.50;;;;;12.01;46.60;99427.84;4839360;28;102503;-59
2021/12/14 07:18:01;;;;;;;;;39.50;31.50;;;;;12.00;46.13;99423.44;4828669;28;109885;-59
2021/12/14 07:20:29;;;;;;;;;35.25;26.00;;;;;11.98;46.48;99420.91;4836300;28;102682;-60
2021/12/14 07:23:01;;;;;;;;;37.25;30.25;;;;;11.98;46.15;99418.19;4819754;28;102468;-59
2021/12/14 07:25:32;;;;;;;;;32.25;30.25;;;;;11.98;46.56;99433.63;4850929;28;102703;-60
2021/12/14 07:28:12;;;;;;;;;36.00;31.00;;;;;11.98;46.75;99430.91;4834383;28;103751;-60
2021/12/14 07:30:41;;;;;;;;;39.75;34.25;;;;;11.97;45.94;99437.38;4840745;28;102650;-59
2021/12/14 07:33:13;;;;;;;;;41.50;31.75;;;;;11.98;46.27;99441.75;4844304;28;102714;-59
2021/12/14 07:35:54;;;;;;;;;35.50;31.00;;;;;11.97;46.54;99440.09;4839942;28;102641;-59
2021/12/14 07:38:25;;;;;;;;;34.00;30.00;;;;;11.97;46.84;99434.66;4836698;28;104080;-59
2021/12/14 07:41:17;;;;;;;;;39.00;32.00;;;;;11.97;46.81;99440.09;4841475;28;104632;-59
2021/12/14 07:43:49;;;;;;;;;36.25;31.50;;;;;11.97;46.07;99440.09;4840237;28;102497;-59
2021/12/14 07:46:26;;;;;;;;;34.75;30.00;;;;;11.97;46.15;99450.94;4837330;28;103813;-59
2021/12/14 07:49:03;;;;;;;;;19.25;14.75;;;;;11.93;46.04;99450.44;4830036;28;104458;-59
2021/12/14 07:51:32;;;;;;;;;39.50;31.50;;;;;11.96;45.96;99443.81;4833628;28;102618;-59
2021/12/14 07:54:03;;;;;;;;;40.00;34.25;;;;;11.96;46.24;99443.81;4824712;28;102455;-59
2021/12/14 07:56:33;;;;;;;;;37.00;30.75;;;;;11.96;45.85;99444.66;4846467;28;103725;-59
2021/12/14 07:59:01;;;;;;;;;36.25;30.00;;;;;11.94;46.63;99440.44;4834364;28;104164;-59
2021/12/14 08:01:28;;;;;;;;;40.00;34.00;;;;;11.94;45.99;99443.16;4819485;28;102607;-59
2021/12/14 08:04:00;;;;;;;;;35.00;29.00;;;;;11.94;45.99;99443.16;4834816;28;102593;-59
2021/12/14 08:06:28;;;;;;;;;41.00;33.75;;;;;11.93;46.04;99439.59;4823965;28;104289;-59
2021/12/14 08:08:56;;;;;;;;;39.50;32.75;;;;;11.91;46.30;99436.25;4817073;28;104053;-59
2021/12/14 08:14:05;;;;;;;;;33.50;28.50;;;;;11.93;46.13;99444.22;4836451;28;102287;-59
2021/12/14 08:17:03;;;;;;;;;32.75;29.50;;;;;11.91;46.26;99448.97;4835538;28;102746;-59
2021/12/14 08:19:36;;;;;;;;;37.25;30.00;;;;;11.87;46.30;99451.22;4828656;28;108899;-59
2021/12/14 08:22:13;;;;;;;;;33.00;29.00;;;;;11.90;45.85;99458.97;4845210;28;102518;-59
2021/12/14 08:24:47;;;;;;;;;36.00;30.00;;;;;11.91;45.90;99457.09;4843892;28;102688;-59
2021/12/14 08:27:18;;;;;;;;;33.50;29.25;;;;;11.90;45.95;99455.41;4837045;28;106188;-59
2021/12/14 08:29:51;;;;;;;;;37.75;31.00;;;;;11.91;46.15;99460.66;4840381;28;104270;-60
2021/12/14 08:32:20;;;;;;;;;23.50;20.00;;;;;11.93;45.92;99452.34;4816443;28;102423;-59
2021/12/14 08:34:48;;;;;;;;;37.25;30.00;;;;;11.93;46.61;99460.47;4848397;28;103084;-59
2021/12/14 08:37:35;;;;;;;;;34.75;28.50;;;;;11.94;46.47;99468.41;4844498;28;110447;-59
2021/12/14 08:40:07;;;;;;;;;35.00;27.50;;;;;11.94;45.93;99472.97;4837584;28;104042;-59
2021/12/14 08:43:21;;;;;;;;;37.00;28.00;;;;;11.95;46.39;99480.06;4839063;28;103202;-59
2021/12/14 08:45:59;;;;;;;;;37.25;29.75;;;;;11.95;45.94;99485.50;4853747;28;102328;-59
2021/12/14 08:48:30;;;;;;;;;31.75;27.75;;;;;11.95;46.32;99477.38;4837425;28;103310;-59
2021/12/14 08:51:02;;;;;;;;;37.50;28.50;;;;;11.95;45.68;99469.25;4833474;28;104014;-59
2021/12/14 08:53:33;;;;;;;;;33.25;28.25;;;;;11.96;46.42;99479.06;4845223;28;102673;-59
2021/12/14 08:56:01;;;;;;;;;36.25;33.25;;;;;11.95;45.45;99464.66;4824453;28;102534;-59
2021/12/14 08:58:29;;;;;;;;;24.75;23.75;;;;;11.94;46.10;99462.13;4845344;28;104698;-59
2021/12/14 09:00:59;;;;;;;;;33.75;26.00;;;;;11.96;45.96;99449.25;4840779;28;103842;-59
2021/12/14 09:03:32;;;;;;;;;36.75;27.75;;;;;11.96;46.29;99441.13;4840723;28;103534;-59
2021/12/14 09:06:03;;;;;;;;;42.75;28.50;;;;;11.94;46.28;99445.88;4847134;28;102213;-59
2021/12/14 09:08:32;;;;;;;;;34.75;29.25;;;;;11.93;45.80;99439.59;4841918;28;102561;-59
2021/12/14 09:11:01;;;;;;;;;29.75;25.25;;;;;11.94;46.50;99445.88;4852744;28;104049;-59
2021/12/14 09:13:28;;;;;;;;;15.00;11.50;;;;;11.94;45.63;99445.88;4826223;28;106745;-59
2021/12/14 09:16:01;;;;;;;;;31.25;28.25;;;;;11.94;46.02;99435.03;4848205;28;103472;-59
2021/12/14 09:18:30;;;;;;;;;34.75;29.75;;;;;11.93;45.76;99433.38;4850840;28;111085;-59
2021/12/14 09:21:00;;;;;;;;;40.75;28.75;;;;;11.91;45.61;99424.56;4832048;28;104069;-59
2021/12/14 09:23:33;;;;;;;;;31.00;26.75;;;;;11.90;45.65;99429.16;4836537;28;102480;-59
2021/12/14 09:26:03;;;;;;;;;29.50;27.00;;;;;11.90;46.31;99434.56;4823295;28;102759;-59
2021/12/14 09:28:30;;;;;;;;;19.50;15.50;;;;;11.89;46.16;99432.88;4828688;28;105377;-59
2021/12/14 09:30:59;;;;;;;;;23.50;18.00;;;;;11.90;46.51;99423.72;4851782;28;104055;-59
2021/12/14 09:33:27;;;;;;;;;30.50;23.50;;;;;11.89;45.74;99421.19;4841054;28;103495;-59
2021/12/14 09:35:56;;;;;;;;;31.50;27.00;;;;;11.89;46.65;99418.50;4839048;28;106401;-59
2021/12/14 09:38:32;;;;;;;;;29.50;25.00;;;;;11.90;46.04;99422.88;4836942;28;102723;-59
2021/12/14 09:41:02;;;;;;;;;34.50;28.25;;;;;11.90;46.13;99429.16;4834212;28;104097;-59
2021/12/14 09:43:32;;;;;;;;;33.25;29.00;;;;;11.90;45.64;99417.47;4834290;28;103366;-59
2021/12/14 09:45:59;;;;;;;;;35.25;29.75;;;;;11.89;46.10;99411.19;4839910;28;102308;-59
2021/12/14 09:48:30;;;;;;;;;30.50;27.00;;;;;11.92;46.21;99412.72;4836530;28;102443;-59
2021/12/14 09:50:58;;;;;;;;;34.50;28.25;;;;;11.93;46.24;99419.81;4841988;28;104183;-59
2021/12/14 09:53:27;;;;;;;;;39.00;29.00;;;;;11.93;45.83;99417.13;4850238;28;102567;-59
2021/12/14 09:55:55;;;;;;;;;29.25;25.75;;;;;11.92;45.62;99401.88;4842709;28;104491;-59
2021/12/14 09:58:25;;;;;;;;;32.50;26.00;;;;;11.91;45.90;99413.72;4846655;28;102365;-59
2021/12/14 10:01:01;;;;;;;;;39.25;32.00;;;;;11.93;46.27;99406.28;4831962;28;104176;-59
2021/12/14 10:03:28;;;;;;;;;27.00;24.50;;;;;11.93;46.55;99411.69;4840137;28;102696;-59
2021/12/14 10:05:58;;;;;;;;;31.25;27.50;;;;;11.94;46.26;99399.78;4839425;28;102645;-59
2021/12/14 10:08:37;;;;;;;;;28.50;23.75;;;;;11.93;46.34;99406.28;4847403;28;103612;-59
2021/12/14 10:11:09;;;;;;;;;25.25;22.25;;;;;11.93;45.50;99407.09;4836180;28;111887;-59
2021/12/14 10:13:38;;;;;;;;;38.50;29.50;;;;;11.93;45.98;99406.28;4845884;28;102394;-59
2021/12/14 10:16:06;;;;;;;;;37.25;27.50;;;;;11.92;46.29;99401.88;4831665;28;102802;-59
2021/12/14 10:18:37;;;;;;;;;31.25;27.25;;;;;11.92;46.04;99399.16;4838282;28;102535;-59
2021/12/14 10:21:20;;;;;;;;;31.00;27.50;;;;;11.93;45.76;99395.44;4842546;28;111572;-59
2021/12/14 10:23:48;;;;;;;;;31.25;27.00;;;;;11.90;46.31;99398.50;4834005;28;102662;-59
2021/12/14 10:26:15;;;;;;;;;30.75;27.00;;;;;11.89;46.35;99399.53;4851977;28;103032;-59
2021/12/14 10:28:45;;;;;;;;;9.25;8.25;;;;;11.88;46.11;99397.88;4846703;28;102540;-59
2021/12/14 10:31:19;;;;;;;;;27.50;21.00;;;;;11.85;46.18;99396.34;4839083;28;104409;-59
2021/12/14 10:33:46;;;;;;;;;32.50;29.00;;;;;11.86;45.77;99400.75;4826524;28;103619;-59
2021/12/14 10:36:27;;;;;;;;;30.00;25.75;;;;;11.87;46.44;99401.59;4837870;28;102402;-59
2021/12/14 10:39:18;;;;;;;;;31.25;25.50;;;;;11.87;45.85;99398.88;4822065;28;102210;-59
2021/12/14 10:44:51;;;;;;;;;31.50;26.00;;;;;11.90;46.17;99395.78;4786143;29;103887;-59
2021/12/14 10:47:20;;;;;;;;;29.25;24.00;;;;;11.89;46.33;99388.69;4787133;29;102379;-59
2021/12/14 10:49:48;;;;;;;;;30.50;25.25;;;;;11.89;46.53;99389.53;4817491;28;102658;-59
2021/12/14 10:52:19;;;;;;;;;27.50;22.00;;;;;11.89;46.04;99384.09;4845801;28;104577;-60
2021/12/14 10:54:50;;;;;;;;;30.25;25.50;;;;;11.91;45.81;99381.22;4843902;28;102267;-59
2021/12/14 10:57:19;;;;;;;;;15.25;15.25;;;;;11.92;45.50;99385.63;4844977;28;102503;-59
2021/12/14 10:59:49;;;;;;;;;36.25;29.50;;;;;11.92;45.77;99382.91;4843755;28;103809;-59
2021/12/14 11:02:20;;;;;;;;;28.25;24.50;;;;;11.91;45.67;99375.78;4827265;28;104428;-59
2021/12/14 11:04:55;;;;;;;;;23.75;23.00;;;;;11.91;45.70;99371.22;4848741;28;102131;-59
2021/12/14 11:07:25;;;;;;;;;27.50;24.25;;;;;11.93;46.21;99373.75;4835826;28;103651;-59
2021/12/14 11:09:55;;;;;;;;;18.50;15.00;;;;;11.91;46.02;99368.50;4835788;28;102492;-59
2021/12/14 11:12:30;;;;;;;;;27.75;23.00;;;;;11.93;45.78;99362.91;4838709;28;104056;-59
2021/12/14 11:15:19;;;;;;;;;35.25;28.00;;;;;11.93;46.02;99373.75;4836465;28;103644;-59
2021/12/14 11:20:52;;;;;;;;;25.00;22.75;;;;;11.91;45.75;99368.50;4852695;28;102921;-59
2021/12/14 11:23:33;;;;;;;;;29.25;25.25;;;;;11.91;45.51;99365.78;4837753;28;108704;-59
2021/12/14 11:26:06;;;;;;;;;26.50;24.00;;;;;11.91;46.13;99371.22;4834302;28;104327;-59
2021/12/14 11:28:51;;;;;;;;;26.75;24.75;;;;;11.89;45.75;99378.69;4830655;28;102374;-59
2021/12/14 11:31:23;;;;;;;;;28.00;24.25;;;;;11.88;45.52;99370.75;4824219;28;102648;-59
2021/12/14 11:33:54;;;;;;;;;27.75;25.00;;;;;11.88;46.16;99371.63;4842820;28;104571;-59
2021/12/14 11:36:51;;;;;;;;;29.00;23.00;;;;;11.88;46.22;99351.78;4853204;28;106497;-59
2021/12/14 11:39:27;;;;;;;;;28.50;23.25;;;;;11.87;45.39;99359.09;4840029;28;102579;-59
2021/12/14 11:42:05;;;;;;;;;29.00;23.25;;;;;11.87;46.12;99358.25;4847596;28;102310;-59
2021/12/14 11:44:38;;;;;;;;;32.75;24.75;;;;;11.87;45.94;99363.66;4841505;28;104253;-60
2021/12/14 11:48:03;;;;;;;;;27.50;23.75;;;;;11.87;46.05;99358.25;4831912;28;102195;-59
2021/12/14 11:50:27;;;;;;;;;29.50;25.25;;;;;11.87;45.44;99361.78;4843872;28;102399;-59
2021/12/14 11:53:01;;;;;;;;;26.50;23.25;;;;;11.89;45.85;99365.13;4828358;28;102291;-59
2021/12/14 11:55:42;;;;;;;;;31.25;26.25;;;;;11.88;46.25;99368.91;4828973;28;104078;-59
2021/12/14 11:58:18;;;;;;;;;29.75;26.75;;;;;11.88;45.54;99359.94;4849781;28;102626;-59
2021/12/14 12:00:54;;;;;;;;;29.50;25.50;;;;;11.89;45.79;99361.59;4827069;28;102316;-59
2021/12/14 12:03:27;;;;;;;;;26.75;23.25;;;;;11.88;45.68;99358.06;4846802;28;102190;-59
2021/12/14 12:06:15;;;;;;;;;36.25;24.75;;;;;11.88;46.20;99355.34;4821855;28;104245;-59